sensor_id;sensor_type;location;lat;lon;timestamp;temperature;humidity
19206;DHT22;59358;52.134;5.596;2023-05-17T00:00:57;8.40;99.90
19206;DHT22;59358;52.134;5.596;2023-05-17T00:03:25;8.40;99.90
19206;DHT22;59358;52.134;5.596;2023-05-17T00:05:52;8.40;99.90
19206;DHT22;59358;52.134;5.596;2023-05-17T00:08:19;8.40;99.90
19206;DHT22;59358;52.134;5.596;2023-05-17T00:10:46;8.40;99.90
19206;DHT22;59358;52.134;5.596;2023-05-17T00:13:12;8.40;99.90
19206;DHT22;59358;52.134;5.596;2023-05-17T00:15:39;8.30;99.90
19206;DHT22;59358;52.134;5.596;2023-05-17T00:18:06;8.30;99.90
19206;DHT22;59358;52.134;5.596;2023-05-17T00:20:34;8.30;99.90
19206;DHT22;59358;52.134;5.596;2023-05-17T00:23:01;8.30;99.90
19206;DHT22;59358;52.134;5.596;2023-05-17T00:25:28;8.30;99.90
19206;DHT22;59358;52.134;5.596;2023-05-17T00:27:55;8.30;99.90
19206;DHT22;59358;52.134;5.596;2023-05-17T00:30:22;8.30;99.90
19206;DHT22;59358;52.134;5.596;2023-05-17T00:32:48;8.30;99.90
19206;DHT22;59358;52.134;5.596;2023-05-17T00:35:15;8.30;99.90
19206;DHT22;59358;52.134;5.596;2023-05-17T00:37:43;8.30;99.90
19206;DHT22;59358;52.134;5.596;2023-05-17T00:40:13;8.30;99.90
19206;DHT22;59358;52.134;5.596;2023-05-17T00:42:40;8.30;99.90
19206;DHT22;59358;52.134;5.596;2023-05-17T00:45:07;8.30;99.90
19206;DHT22;59358;52.134;5.596;2023-05-17T00:47:34;8.30;99.90
19206;DHT22;59358;52.134;5.596;2023-05-17T00:50:01;8.30;99.90
19206;DHT22;59358;52.134;5.596;2023-05-17T00:52:28;8.30;99.90
19206;DHT22;59358;52.134;5.596;2023-05-17T00:54:56;8.30;99.90
19206;DHT22;59358;52.134;5.596;2023-05-17T00:57:23;8.40;99.90
19206;DHT22;59358;52.134;5.596;2023-05-17T00:59:50;8.40;99.90
19206;DHT22;59358;52.134;5.596;2023-05-17T01:02:17;8.40;99.90
19206;DHT22;59358;52.134;5.596;2023-05-17T01:04:45;8.40;99.90
19206;DHT22;59358;52.134;5.596;2023-05-17T01:07:13;8.50;99.90
19206;DHT22;59358;52.134;5.596;2023-05-17T01:09:40;8.50;99.90
19206;DHT22;59358;52.134;5.596;2023-05-17T01:12:14;8.60;99.90
19206;DHT22;59358;52.134;5.596;2023-05-17T01:14:49;8.70;99.90
19206;DHT22;59358;52.134;5.596;2023-05-17T01:17:21;8.70;99.90
19206;DHT22;59358;52.134;5.596;2023-05-17T01:19:55;8.70;99.90
19206;DHT22;59358;52.134;5.596;2023-05-17T01:22:30;8.80;99.90
19206;DHT22;59358;52.134;5.596;2023-05-17T01:25:10;8.90;99.90
19206;DHT22;59358;52.134;5.596;2023-05-17T01:27:40;8.90;99.90
19206;DHT22;59358;52.134;5.596;2023-05-17T01:30:11;9.00;99.90
19206;DHT22;59358;52.134;5.596;2023-05-17T01:32:40;9.10;99.90
19206;DHT22;59358;52.134;5.596;2023-05-17T01:35:07;9.10;99.90
19206;DHT22;59358;52.134;5.596;2023-05-17T01:37:35;9.20;99.90
19206;DHT22;59358;52.134;5.596;2023-05-17T01:40:02;9.20;99.90
19206;DHT22;59358;52.134;5.596;2023-05-17T01:42:31;9.30;99.90
19206;DHT22;59358;52.134;5.596;2023-05-17T01:45:04;9.40;99.90
19206;DHT22;59358;52.134;5.596;2023-05-17T01:47:37;9.40;99.90
19206;DHT22;59358;52.134;5.596;2023-05-17T01:50:06;9.40;99.90
19206;DHT22;59358;52.134;5.596;2023-05-17T01:52:41;9.50;99.90
19206;DHT22;59358;52.134;5.596;2023-05-17T01:55:18;9.60;99.90
19206;DHT22;59358;52.134;5.596;2023-05-17T01:57:52;9.60;99.90
19206;DHT22;59358;52.134;5.596;2023-05-17T02:00:21;9.60;99.90
19206;DHT22;59358;52.134;5.596;2023-05-17T02:02:49;9.70;99.90
19206;DHT22;59358;52.134;5.596;2023-05-17T02:05:16;9.70;99.90
19206;DHT22;59358;52.134;5.596;2023-05-17T02:07:42;9.80;99.90
19206;DHT22;59358;52.134;5.596;2023-05-17T02:10:10;9.80;99.90
19206;DHT22;59358;52.134;5.596;2023-05-17T02:12:37;9.80;99.90
19206;DHT22;59358;52.134;5.596;2023-05-17T02:15:05;9.80;99.90
19206;DHT22;59358;52.134;5.596;2023-05-17T02:17:34;9.80;99.90
19206;DHT22;59358;52.134;5.596;2023-05-17T02:20:00;9.90;99.90
19206;DHT22;59358;52.134;5.596;2023-05-17T02:22:27;9.90;99.90
19206;DHT22;59358;52.134;5.596;2023-05-17T02:24:54;10.00;99.90
19206;DHT22;59358;52.134;5.596;2023-05-17T02:27:21;10.10;99.90
19206;DHT22;59358;52.134;5.596;2023-05-17T02:29:48;10.20;99.90
19206;DHT22;59358;52.134;5.596;2023-05-17T02:32:14;10.10;99.90
19206;DHT22;59358;52.134;5.596;2023-05-17T02:34:42;10.10;99.90
19206;DHT22;59358;52.134;5.596;2023-05-17T02:37:09;10.10;99.90
19206;DHT22;59358;52.134;5.596;2023-05-17T02:39:36;10.00;99.90
19206;DHT22;59358;52.134;5.596;2023-05-17T02:42:03;10.00;99.90
19206;DHT22;59358;52.134;5.596;2023-05-17T02:44:30;10.00;99.90
19206;DHT22;59358;52.134;5.596;2023-05-17T02:46:57;10.00;99.90
19206;DHT22;59358;52.134;5.596;2023-05-17T02:49:23;10.00;99.90
19206;DHT22;59358;52.134;5.596;2023-05-17T02:51:51;10.00;99.90
19206;DHT22;59358;52.134;5.596;2023-05-17T02:54:18;10.00;99.90
19206;DHT22;59358;52.134;5.596;2023-05-17T02:56:45;9.80;99.90
19206;DHT22;59358;52.134;5.596;2023-05-17T02:59:12;9.80;99.90
19206;DHT22;59358;52.134;5.596;2023-05-17T03:01:39;9.80;99.90
19206;DHT22;59358;52.134;5.596;2023-05-17T03:04:06;9.80;99.90
19206;DHT22;59358;52.134;5.596;2023-05-17T03:06:33;9.70;99.90
19206;DHT22;59358;52.134;5.596;2023-05-17T03:09:01;9.80;99.90
19206;DHT22;59358;52.134;5.596;2023-05-17T03:11:28;9.80;99.90
19206;DHT22;59358;52.134;5.596;2023-05-17T03:13:54;9.80;99.90
19206;DHT22;59358;52.134;5.596;2023-05-17T03:16:21;9.80;99.90
19206;DHT22;59358;52.134;5.596;2023-05-17T03:18:48;9.80;99.90
19206;DHT22;59358;52.134;5.596;2023-05-17T03:21:15;9.90;99.90
19206;DHT22;59358;52.134;5.596;2023-05-17T03:23:42;9.90;99.90
19206;DHT22;59358;52.134;5.596;2023-05-17T03:26:10;9.80;99.90
19206;DHT22;59358;52.134;5.596;2023-05-17T03:28:37;9.80;99.90
19206;DHT22;59358;52.134;5.596;2023-05-17T03:31:03;9.70;99.90
19206;DHT22;59358;52.134;5.596;2023-05-17T03:33:31;9.60;99.90
19206;DHT22;59358;52.134;5.596;2023-05-17T03:35:57;9.50;99.90
19206;DHT22;59358;52.134;5.596;2023-05-17T03:38:24;9.50;99.90
19206;DHT22;59358;52.134;5.596;2023-05-17T03:40:51;9.50;99.90
19206;DHT22;59358;52.134;5.596;2023-05-17T03:43:20;9.40;99.90
19206;DHT22;59358;52.134;5.596;2023-05-17T03:45:46;9.40;99.90
19206;DHT22;59358;52.134;5.596;2023-05-17T03:48:13;9.40;99.90
19206;DHT22;59358;52.134;5.596;2023-05-17T03:50:40;9.30;99.90
19206;DHT22;59358;52.134;5.596;2023-05-17T03:53:07;9.10;99.90
19206;DHT22;59358;52.134;5.596;2023-05-17T03:55:34;9.00;99.90
19206;DHT22;59358;52.134;5.596;2023-05-17T03:58:01;9.00;99.90
19206;DHT22;59358;52.134;5.596;2023-05-17T04:00:29;8.80;99.90
19206;DHT22;59358;52.134;5.596;2023-05-17T04:02:56;8.70;99.90
19206;DHT22;59358;52.134;5.596;2023-05-17T04:05:23;8.70;99.90
19206;DHT22;59358;52.134;5.596;2023-05-17T04:07:50;8.70;99.90
19206;DHT22;59358;52.134;5.596;2023-05-17T04:10:16;8.70;99.90
19206;DHT22;59358;52.134;5.596;2023-05-17T04:12:44;8.70;99.90
19206;DHT22;59358;52.134;5.596;2023-05-17T04:15:11;8.70;99.90
19206;DHT22;59358;52.134;5.596;2023-05-17T04:17:39;8.70;99.90
19206;DHT22;59358;52.134;5.596;2023-05-17T04:20:06;8.60;99.90
19206;DHT22;59358;52.134;5.596;2023-05-17T04:22:33;8.70;99.90
19206;DHT22;59358;52.134;5.596;2023-05-17T04:25:00;8.60;99.90
19206;DHT22;59358;52.134;5.596;2023-05-17T04:27:26;8.60;99.90
19206;DHT22;59358;52.134;5.596;2023-05-17T04:29:53;8.60;99.90
19206;DHT22;59358;52.134;5.596;2023-05-17T04:32:20;8.60;99.90
19206;DHT22;59358;52.134;5.596;2023-05-17T04:34:48;8.60;99.90
19206;DHT22;59358;52.134;5.596;2023-05-17T04:37:16;8.50;99.90
19206;DHT22;59358;52.134;5.596;2023-05-17T04:39:43;8.50;99.90
19206;DHT22;59358;52.134;5.596;2023-05-17T04:42:10;8.50;99.90
19206;DHT22;59358;52.134;5.596;2023-05-17T04:44:36;8.50;99.90
19206;DHT22;59358;52.134;5.596;2023-05-17T04:47:04;8.50;99.90
19206;DHT22;59358;52.134;5.596;2023-05-17T04:49:30;8.60;99.90
19206;DHT22;59358;52.134;5.596;2023-05-17T04:51:59;8.60;99.90
19206;DHT22;59358;52.134;5.596;2023-05-17T04:54:26;8.60;99.90
19206;DHT22;59358;52.134;5.596;2023-05-17T04:56:53;8.60;99.90
19206;DHT22;59358;52.134;5.596;2023-05-17T04:59:20;8.70;99.90
19206;DHT22;59358;52.134;5.596;2023-05-17T05:01:47;8.70;99.90
19206;DHT22;59358;52.134;5.596;2023-05-17T05:04:14;8.70;99.90
19206;DHT22;59358;52.134;5.596;2023-05-17T05:06:41;8.80;99.90
19206;DHT22;59358;52.134;5.596;2023-05-17T05:09:09;8.80;99.90
19206;DHT22;59358;52.134;5.596;2023-05-17T05:11:36;8.80;99.90
19206;DHT22;59358;52.134;5.596;2023-05-17T05:14:02;8.90;99.90
19206;DHT22;59358;52.134;5.596;2023-05-17T05:16:29;9.00;99.90
19206;DHT22;59358;52.134;5.596;2023-05-17T05:18:56;9.10;99.90
19206;DHT22;59358;52.134;5.596;2023-05-17T05:21:23;9.10;99.90
19206;DHT22;59358;52.134;5.596;2023-05-17T05:23:49;9.10;99.90
19206;DHT22;59358;52.134;5.596;2023-05-17T05:26:18;9.20;99.90
19206;DHT22;59358;52.134;5.596;2023-05-17T05:28:45;9.20;99.90
19206;DHT22;59358;52.134;5.596;2023-05-17T05:31:12;9.20;99.90
19206;DHT22;59358;52.134;5.596;2023-05-17T05:33:38;9.30;99.90
19206;DHT22;59358;52.134;5.596;2023-05-17T05:36:06;9.20;99.90
19206;DHT22;59358;52.134;5.596;2023-05-17T05:38:33;9.30;99.90
19206;DHT22;59358;52.134;5.596;2023-05-17T05:41:00;9.50;99.90
19206;DHT22;59358;52.134;5.596;2023-05-17T05:43:29;9.60;99.90
19206;DHT22;59358;52.134;5.596;2023-05-17T05:45:55;9.70;99.90
19206;DHT22;59358;52.134;5.596;2023-05-17T05:48:22;9.80;99.90
19206;DHT22;59358;52.134;5.596;2023-05-17T05:50:49;9.80;99.90
19206;DHT22;59358;52.134;5.596;2023-05-17T05:53:17;10.00;99.90
19206;DHT22;59358;52.134;5.596;2023-05-17T05:55:43;10.00;99.90
19206;DHT22;59358;52.134;5.596;2023-05-17T05:58:10;10.10;99.90
19206;DHT22;59358;52.134;5.596;2023-05-17T06:00:38;10.00;99.90
19206;DHT22;59358;52.134;5.596;2023-05-17T06:03:05;10.00;99.90
19206;DHT22;59358;52.134;5.596;2023-05-17T06:05:32;10.00;99.90
19206;DHT22;59358;52.134;5.596;2023-05-17T06:07:59;10.10;99.90
19206;DHT22;59358;52.134;5.596;2023-05-17T06:10:26;10.10;99.90
19206;DHT22;59358;52.134;5.596;2023-05-17T06:12:52;10.10;99.90
19206;DHT22;59358;52.134;5.596;2023-05-17T06:15:19;10.00;99.90
19206;DHT22;59358;52.134;5.596;2023-05-17T06:17:47;10.10;99.90
19206;DHT22;59358;52.134;5.596;2023-05-17T06:20:14;10.20;99.90
19206;DHT22;59358;52.134;5.596;2023-05-17T06:22:41;10.30;99.90
19206;DHT22;59358;52.134;5.596;2023-05-17T06:25:09;10.40;99.90
19206;DHT22;59358;52.134;5.596;2023-05-17T06:27:36;10.50;99.90
19206;DHT22;59358;52.134;5.596;2023-05-17T06:30:04;10.50;99.90
19206;DHT22;59358;52.134;5.596;2023-05-17T06:32:31;10.40;99.90
19206;DHT22;59358;52.134;5.596;2023-05-17T06:34:59;10.40;99.90
19206;DHT22;59358;52.134;5.596;2023-05-17T06:37:26;10.60;99.90
19206;DHT22;59358;52.134;5.596;2023-05-17T06:40:01;10.80;99.90
19206;DHT22;59358;52.134;5.596;2023-05-17T06:42:29;10.90;99.90
19206;DHT22;59358;52.134;5.596;2023-05-17T06:44:56;11.00;99.90
19206;DHT22;59358;52.134;5.596;2023-05-17T06:47:23;11.10;99.90
19206;DHT22;59358;52.134;5.596;2023-05-17T06:49:50;11.20;99.90
19206;DHT22;59358;52.134;5.596;2023-05-17T06:52:18;11.20;99.90
19206;DHT22;59358;52.134;5.596;2023-05-17T06:54:45;11.50;99.90
19206;DHT22;59358;52.134;5.596;2023-05-17T06:57:12;11.70;99.90
19206;DHT22;59358;52.134;5.596;2023-05-17T06:59:39;12.00;99.90
19206;DHT22;59358;52.134;5.596;2023-05-17T07:02:05;12.10;99.90
19206;DHT22;59358;52.134;5.596;2023-05-17T07:04:32;12.30;99.90
19206;DHT22;59358;52.134;5.596;2023-05-17T07:06:59;12.40;99.90
19206;DHT22;59358;52.134;5.596;2023-05-17T07:09:27;12.40;99.90
19206;DHT22;59358;52.134;5.596;2023-05-17T07:11:54;12.30;99.90
19206;DHT22;59358;52.134;5.596;2023-05-17T07:14:21;12.20;99.90
19206;DHT22;59358;52.134;5.596;2023-05-17T07:16:48;12.30;99.90
19206;DHT22;59358;52.134;5.596;2023-05-17T07:19:15;12.30;99.90
19206;DHT22;59358;52.134;5.596;2023-05-17T07:21:42;12.20;99.90
19206;DHT22;59358;52.134;5.596;2023-05-17T07:24:09;12.10;99.90
19206;DHT22;59358;52.134;5.596;2023-05-17T07:26:37;11.90;99.90
19206;DHT22;59358;52.134;5.596;2023-05-17T07:29:04;11.70;99.90
19206;DHT22;59358;52.134;5.596;2023-05-17T07:31:30;11.60;99.90
19206;DHT22;59358;52.134;5.596;2023-05-17T07:33:57;11.80;99.90
19206;DHT22;59358;52.134;5.596;2023-05-17T07:36:24;11.90;99.90
19206;DHT22;59358;52.134;5.596;2023-05-17T07:38:54;12.00;99.90
19206;DHT22;59358;52.134;5.596;2023-05-17T07:41:21;11.90;99.90
19206;DHT22;59358;52.134;5.596;2023-05-17T07:43:51;11.90;99.90
19206;DHT22;59358;52.134;5.596;2023-05-17T07:46:18;11.70;99.90
19206;DHT22;59358;52.134;5.596;2023-05-17T07:48:44;11.70;99.90
19206;DHT22;59358;52.134;5.596;2023-05-17T07:51:11;11.90;99.90
19206;DHT22;59358;52.134;5.596;2023-05-17T07:53:38;12.20;99.90
19206;DHT22;59358;52.134;5.596;2023-05-17T07:56:05;12.90;99.90
19206;DHT22;59358;52.134;5.596;2023-05-17T07:58:32;13.20;99.90
19206;DHT22;59358;52.134;5.596;2023-05-17T08:01:02;13.60;99.90
19206;DHT22;59358;52.134;5.596;2023-05-17T08:03:28;13.50;99.90
19206;DHT22;59358;52.134;5.596;2023-05-17T08:05:55;13.50;99.90
19206;DHT22;59358;52.134;5.596;2023-05-17T08:08:22;13.40;99.90
19206;DHT22;59358;52.134;5.596;2023-05-17T08:10:49;13.40;99.90
19206;DHT22;59358;52.134;5.596;2023-05-17T08:13:16;13.50;99.90
19206;DHT22;59358;52.134;5.596;2023-05-17T08:15:43;13.70;99.90
19206;DHT22;59358;52.134;5.596;2023-05-17T08:18:11;13.90;99.90
19206;DHT22;59358;52.134;5.596;2023-05-17T08:20:38;13.90;99.90
19206;DHT22;59358;52.134;5.596;2023-05-17T08:23:05;13.70;99.90
19206;DHT22;59358;52.134;5.596;2023-05-17T08:25:32;13.70;99.90
19206;DHT22;59358;52.134;5.596;2023-05-17T08:27:59;13.60;99.90
19206;DHT22;59358;52.134;5.596;2023-05-17T08:30:25;13.30;99.90
19206;DHT22;59358;52.134;5.596;2023-05-17T08:32:52;13.00;99.90
19206;DHT22;59358;52.134;5.596;2023-05-17T08:35:22;12.70;99.90
19206;DHT22;59358;52.134;5.596;2023-05-17T08:37:50;12.80;99.90
19206;DHT22;59358;52.134;5.596;2023-05-17T08:40:20;12.80;99.90
19206;DHT22;59358;52.134;5.596;2023-05-17T08:42:47;12.70;99.90
19206;DHT22;59358;52.134;5.596;2023-05-17T08:45:14;12.60;99.90
19206;DHT22;59358;52.134;5.596;2023-05-17T08:47:42;12.30;99.90
19206;DHT22;59358;52.134;5.596;2023-05-17T08:50:11;12.20;99.90
19206;DHT22;59358;52.134;5.596;2023-05-17T08:52:44;12.50;99.90
19206;DHT22;59358;52.134;5.596;2023-05-17T08:55:11;13.00;99.90
19206;DHT22;59358;52.134;5.596;2023-05-17T08:57:41;13.50;99.90
19206;DHT22;59358;52.134;5.596;2023-05-17T09:00:11;13.90;99.90
19206;DHT22;59358;52.134;5.596;2023-05-17T09:02:39;14.30;99.90
19206;DHT22;59358;52.134;5.596;2023-05-17T09:05:07;14.20;99.90
19206;DHT22;59358;52.134;5.596;2023-05-17T09:07:36;14.00;99.90
19206;DHT22;59358;52.134;5.596;2023-05-17T09:10:05;14.00;99.90
19206;DHT22;59358;52.134;5.596;2023-05-17T09:12:32;13.90;99.90
19206;DHT22;59358;52.134;5.596;2023-05-17T09:15:13;14.00;99.90
19206;DHT22;59358;52.134;5.596;2023-05-17T09:17:41;13.90;99.90
19206;DHT22;59358;52.134;5.596;2023-05-17T09:20:08;14.10;99.90
19206;DHT22;59358;52.134;5.596;2023-05-17T09:22:35;14.30;99.90
19206;DHT22;59358;52.134;5.596;2023-05-17T09:25:05;14.30;99.90
19206;DHT22;59358;52.134;5.596;2023-05-17T09:27:32;14.40;99.90
19206;DHT22;59358;52.134;5.596;2023-05-17T09:29:59;14.50;99.90
19206;DHT22;59358;52.134;5.596;2023-05-17T09:32:26;14.90;99.90
19206;DHT22;59358;52.134;5.596;2023-05-17T09:34:53;15.20;99.90
19206;DHT22;59358;52.134;5.596;2023-05-17T09:37:22;15.40;99.90
19206;DHT22;59358;52.134;5.596;2023-05-17T09:39:50;15.70;99.90
19206;DHT22;59358;52.134;5.596;2023-05-17T09:42:19;15.80;99.90
19206;DHT22;59358;52.134;5.596;2023-05-17T09:44:52;15.20;99.90
19206;DHT22;59358;52.134;5.596;2023-05-17T09:47:24;14.90;99.40
19206;DHT22;59358;52.134;5.596;2023-05-17T09:49:51;14.90;99.90
19206;DHT22;59358;52.134;5.596;2023-05-17T09:52:19;14.90;99.90
19206;DHT22;59358;52.134;5.596;2023-05-17T09:54:53;15.10;99.80
19206;DHT22;59358;52.134;5.596;2023-05-17T09:57:22;14.70;98.90
19206;DHT22;59358;52.134;5.596;2023-05-17T09:59:49;14.70;99.10
19206;DHT22;59358;52.134;5.596;2023-05-17T10:02:20;14.50;99.60
19206;DHT22;59358;52.134;5.596;2023-05-17T10:04:48;14.60;99.70
19206;DHT22;59358;52.134;5.596;2023-05-17T10:07:17;14.30;98.90
19206;DHT22;59358;52.134;5.596;2023-05-17T10:09:45;14.20;98.60
19206;DHT22;59358;52.134;5.596;2023-05-17T10:12:16;14.20;99.10
19206;DHT22;59358;52.134;5.596;2023-05-17T10:14:46;14.40;98.70
19206;DHT22;59358;52.134;5.596;2023-05-17T10:17:13;14.60;99.10
19206;DHT22;59358;52.134;5.596;2023-05-17T10:19:41;14.70;98.50
19206;DHT22;59358;52.134;5.596;2023-05-17T10:22:09;14.90;98.20
19206;DHT22;59358;52.134;5.596;2023-05-17T10:24:37;14.90;97.80
19206;DHT22;59358;52.134;5.596;2023-05-17T10:27:05;14.80;98.60
19206;DHT22;59358;52.134;5.596;2023-05-17T10:29:33;14.90;98.50
19206;DHT22;59358;52.134;5.596;2023-05-17T10:32:03;14.70;98.00
19206;DHT22;59358;52.134;5.596;2023-05-17T10:34:33;14.60;98.40
19206;DHT22;59358;52.134;5.596;2023-05-17T10:37:00;14.70;98.40
19206;DHT22;59358;52.134;5.596;2023-05-17T10:39:27;14.60;99.20
19206;DHT22;59358;52.134;5.596;2023-05-17T10:41:55;14.60;99.50
19206;DHT22;59358;52.134;5.596;2023-05-17T10:44:23;14.60;98.90
19206;DHT22;59358;52.134;5.596;2023-05-17T10:46:51;14.80;99.10
19206;DHT22;59358;52.134;5.596;2023-05-17T10:49:22;15.10;98.10
19206;DHT22;59358;52.134;5.596;2023-05-17T10:51:50;14.90;95.60
19206;DHT22;59358;52.134;5.596;2023-05-17T10:54:16;14.80;97.10
19206;DHT22;59358;52.134;5.596;2023-05-17T10:56:47;14.90;96.40
19206;DHT22;59358;52.134;5.596;2023-05-17T10:59:18;15.00;97.20
19206;DHT22;59358;52.134;5.596;2023-05-17T11:01:55;14.90;97.20
19206;DHT22;59358;52.134;5.596;2023-05-17T11:04:25;14.80;96.50
19206;DHT22;59358;52.134;5.596;2023-05-17T11:06:53;15.00;97.00
19206;DHT22;59358;52.134;5.596;2023-05-17T11:09:22;14.80;96.70
19206;DHT22;59358;52.134;5.596;2023-05-17T11:12:06;14.80;96.10
19206;DHT22;59358;52.134;5.596;2023-05-17T11:14:54;15.10;96.60
19206;DHT22;59358;52.134;5.596;2023-05-17T11:17:24;15.10;96.40
19206;DHT22;59358;52.134;5.596;2023-05-17T11:20:00;15.10;96.40
19206;DHT22;59358;52.134;5.596;2023-05-17T11:22:33;14.90;96.90
19206;DHT22;59358;52.134;5.596;2023-05-17T11:25:05;15.10;97.00
19206;DHT22;59358;52.134;5.596;2023-05-17T11:27:35;15.10;96.70
19206;DHT22;59358;52.134;5.596;2023-05-17T11:30:16;15.20;96.60
19206;DHT22;59358;52.134;5.596;2023-05-17T11:32:47;15.20;96.80
19206;DHT22;59358;52.134;5.596;2023-05-17T11:35:16;15.20;96.30
19206;DHT22;59358;52.134;5.596;2023-05-17T11:37:44;15.20;96.40
19206;DHT22;59358;52.134;5.596;2023-05-17T11:40:11;15.10;95.10
19206;DHT22;59358;52.134;5.596;2023-05-17T11:42:39;14.80;95.80
19206;DHT22;59358;52.134;5.596;2023-05-17T11:45:07;14.70;95.90
19206;DHT22;59358;52.134;5.596;2023-05-17T11:47:38;15.00;97.10
19206;DHT22;59358;52.134;5.596;2023-05-17T11:50:06;15.20;95.50
19206;DHT22;59358;52.134;5.596;2023-05-17T11:52:34;15.10;95.90
19206;DHT22;59358;52.134;5.596;2023-05-17T11:55:02;15.30;95.40
19206;DHT22;59358;52.134;5.596;2023-05-17T11:57:30;15.50;95.40
19206;DHT22;59358;52.134;5.596;2023-05-17T12:00:00;15.30;95.50
19206;DHT22;59358;52.134;5.596;2023-05-17T12:02:28;15.20;95.50
19206;DHT22;59358;52.134;5.596;2023-05-17T12:04:55;15.20;95.60
19206;DHT22;59358;52.134;5.596;2023-05-17T12:07:22;15.40;94.60
19206;DHT22;59358;52.134;5.596;2023-05-17T12:09:51;15.50;95.90
19206;DHT22;59358;52.134;5.596;2023-05-17T12:12:18;15.80;95.50
19206;DHT22;59358;52.134;5.596;2023-05-17T12:14:47;15.80;95.30
19206;DHT22;59358;52.134;5.596;2023-05-17T12:17:23;15.90;96.00
19206;DHT22;59358;52.134;5.596;2023-05-17T12:19:53;15.90;95.70
19206;DHT22;59358;52.134;5.596;2023-05-17T12:22:20;15.80;96.00
19206;DHT22;59358;52.134;5.596;2023-05-17T12:24:47;15.40;95.20
19206;DHT22;59358;52.134;5.596;2023-05-17T12:27:24;15.60;94.80
19206;DHT22;59358;52.134;5.596;2023-05-17T12:29:51;15.50;95.80
19206;DHT22;59358;52.134;5.596;2023-05-17T12:32:18;15.70;96.80
19206;DHT22;59358;52.134;5.596;2023-05-17T12:34:46;16.00;95.50
19206;DHT22;59358;52.134;5.596;2023-05-17T12:37:13;15.80;95.60
19206;DHT22;59358;52.134;5.596;2023-05-17T12:39:40;15.90;96.30
19206;DHT22;59358;52.134;5.596;2023-05-17T12:42:08;16.20;95.60
19206;DHT22;59358;52.134;5.596;2023-05-17T12:44:36;16.10;95.30
19206;DHT22;59358;52.134;5.596;2023-05-17T12:47:04;15.90;95.50
19206;DHT22;59358;52.134;5.596;2023-05-17T12:49:37;15.90;95.10
19206;DHT22;59358;52.134;5.596;2023-05-17T12:52:04;15.60;95.20
19206;DHT22;59358;52.134;5.596;2023-05-17T12:54:32;15.80;95.50
19206;DHT22;59358;52.134;5.596;2023-05-17T12:57:08;16.00;94.10
19206;DHT22;59358;52.134;5.596;2023-05-17T12:59:45;16.00;94.40
19206;DHT22;59358;52.134;5.596;2023-05-17T13:02:12;16.10;94.60
19206;DHT22;59358;52.134;5.596;2023-05-17T13:04:39;16.20;94.80
19206;DHT22;59358;52.134;5.596;2023-05-17T13:07:06;16.20;94.30
19206;DHT22;59358;52.134;5.596;2023-05-17T13:09:33;16.20;94.80
19206;DHT22;59358;52.134;5.596;2023-05-17T13:12:04;16.40;94.60
19206;DHT22;59358;52.134;5.596;2023-05-17T13:14:38;16.30;94.60
19206;DHT22;59358;52.134;5.596;2023-05-17T13:17:06;16.60;94.50
19206;DHT22;59358;52.134;5.596;2023-05-17T13:19:33;16.70;94.80
19206;DHT22;59358;52.134;5.596;2023-05-17T13:22:01;16.80;93.90
19206;DHT22;59358;52.134;5.596;2023-05-17T13:24:30;17.10;93.60
19206;DHT22;59358;52.134;5.596;2023-05-17T13:26:57;16.80;94.40
19206;DHT22;59358;52.134;5.596;2023-05-17T13:29:23;16.80;94.10
19206;DHT22;59358;52.134;5.596;2023-05-17T13:31:51;16.70;94.40
19206;DHT22;59358;52.134;5.596;2023-05-17T13:34:18;16.40;95.10
19206;DHT22;59358;52.134;5.596;2023-05-17T13:36:45;16.60;94.70
19206;DHT22;59358;52.134;5.596;2023-05-17T13:39:12;16.80;94.60
19206;DHT22;59358;52.134;5.596;2023-05-17T13:41:39;16.80;93.90
19206;DHT22;59358;52.134;5.596;2023-05-17T13:44:06;16.70;94.70
19206;DHT22;59358;52.134;5.596;2023-05-17T13:46:33;16.60;93.80
19206;DHT22;59358;52.134;5.596;2023-05-17T13:49:01;16.40;94.90
19206;DHT22;59358;52.134;5.596;2023-05-17T13:51:28;16.50;94.10
19206;DHT22;59358;52.134;5.596;2023-05-17T13:53:56;16.70;95.00
19206;DHT22;59358;52.134;5.596;2023-05-17T13:56:23;16.80;94.30
19206;DHT22;59358;52.134;5.596;2023-05-17T13:58:49;17.00;94.10
19206;DHT22;59358;52.134;5.596;2023-05-17T14:01:16;17.00;93.80
19206;DHT22;59358;52.134;5.596;2023-05-17T14:03:44;16.90;93.20
19206;DHT22;59358;52.134;5.596;2023-05-17T14:06:12;17.00;94.90
19206;DHT22;59358;52.134;5.596;2023-05-17T14:08:38;17.20;93.60
19206;DHT22;59358;52.134;5.596;2023-05-17T14:11:05;17.00;93.60
19206;DHT22;59358;52.134;5.596;2023-05-17T14:13:32;17.00;94.70
19206;DHT22;59358;52.134;5.596;2023-05-17T14:15:59;17.10;94.30
19206;DHT22;59358;52.134;5.596;2023-05-17T14:18:26;17.20;93.30
19206;DHT22;59358;52.134;5.596;2023-05-17T14:20:52;17.20;92.50
19206;DHT22;59358;52.134;5.596;2023-05-17T14:23:20;17.20;93.70
19206;DHT22;59358;52.134;5.596;2023-05-17T14:25:47;17.60;93.10
19206;DHT22;59358;52.134;5.596;2023-05-17T14:28:15;17.30;93.20
19206;DHT22;59358;52.134;5.596;2023-05-17T14:30:42;17.30;93.40
19206;DHT22;59358;52.134;5.596;2023-05-17T14:33:09;17.20;93.70
19206;DHT22;59358;52.134;5.596;2023-05-17T14:35:36;17.30;94.20
19206;DHT22;59358;52.134;5.596;2023-05-17T14:38:03;17.50;93.40
19206;DHT22;59358;52.134;5.596;2023-05-17T14:40:31;17.50;93.50
19206;DHT22;59358;52.134;5.596;2023-05-17T14:42:58;17.70;92.70
19206;DHT22;59358;52.134;5.596;2023-05-17T14:45:24;17.60;92.70
19206;DHT22;59358;52.134;5.596;2023-05-17T14:47:52;17.90;92.10
19206;DHT22;59358;52.134;5.596;2023-05-17T14:50:19;18.10;92.20
19206;DHT22;59358;52.134;5.596;2023-05-17T14:52:46;18.60;92.70
19206;DHT22;59358;52.134;5.596;2023-05-17T14:55:12;18.90;91.60
19206;DHT22;59358;52.134;5.596;2023-05-17T14:57:42;19.20;91.50
19206;DHT22;59358;52.134;5.596;2023-05-17T15:00:09;19.00;90.20
19206;DHT22;59358;52.134;5.596;2023-05-17T15:02:37;19.10;91.50
19206;DHT22;59358;52.134;5.596;2023-05-17T15:05:05;19.70;91.10
19206;DHT22;59358;52.134;5.596;2023-05-17T15:07:32;20.10;90.20
19206;DHT22;59358;52.134;5.596;2023-05-17T15:09:58;20.30;89.70
19206;DHT22;59358;52.134;5.596;2023-05-17T15:12:25;20.60;88.20
19206;DHT22;59358;52.134;5.596;2023-05-17T15:14:54;21.00;88.20
19206;DHT22;59358;52.134;5.596;2023-05-17T15:17:20;20.90;83.80
19206;DHT22;59358;52.134;5.596;2023-05-17T15:19:47;21.30;83.70
19206;DHT22;59358;52.134;5.596;2023-05-17T15:22:14;21.40;85.00
19206;DHT22;59358;52.134;5.596;2023-05-17T15:24:43;22.00;85.30
19206;DHT22;59358;52.134;5.596;2023-05-17T15:27:10;22.20;85.20
19206;DHT22;59358;52.134;5.596;2023-05-17T15:29:39;22.30;83.50
19206;DHT22;59358;52.134;5.596;2023-05-17T15:32:08;22.30;85.20
19206;DHT22;59358;52.134;5.596;2023-05-17T15:34:34;23.20;83.60
19206;DHT22;59358;52.134;5.596;2023-05-17T15:37:01;23.30;84.00
19206;DHT22;59358;52.134;5.596;2023-05-17T15:39:28;23.80;82.50